sensor_id;sensor_type;location;lat;lon;timestamp;P1;durP1;ratioP1;P2;durP2;ratioP2
19525;SDS011;9907;42.676;26.348;2023-04-01T00:00:28;11.53;;;7.33;;
19525;SDS011;9907;42.676;26.348;2023-04-01T00:02:54;8.87;;;7.40;;
19525;SDS011;9907;42.676;26.348;2023-04-01T00:05:19;10.70;;;7.47;;
19525;SDS011;9907;42.676;26.348;2023-04-01T00:07:45;10.03;;;6.70;;
19525;SDS011;9907;42.676;26.348;2023-04-01T00:10:11;10.67;;;7.53;;
19525;SDS011;9907;42.676;26.348;2023-04-01T00:12:38;12.43;;;7.73;;
19525;SDS011;9907;42.676;26.348;2023-04-01T00:15:05;13.60;;;7.43;;
19525;SDS011;9907;42.676;26.348;2023-04-01T00:17:32;9.87;;;7.23;;
19525;SDS011;9907;42.676;26.348;2023-04-01T00:19:57;15.00;;;8.47;;
19525;SDS011;9907;42.676;26.348;2023-04-01T00:22:24;14.60;;;8.37;;
19525;SDS011;9907;42.676;26.348;2023-04-01T00:24:52;10.40;;;7.17;;
19525;SDS011;9907;42.676;26.348;2023-04-01T00:27:18;14.07;;;6.97;;
19525;SDS011;9907;42.676;26.348;2023-04-01T00:29:45;9.80;;;7.10;;
19525;SDS011;9907;42.676;26.348;2023-04-01T00:32:12;11.27;;;7.27;;
19525;SDS011;9907;42.676;26.348;2023-04-01T00:34:39;10.13;;;6.87;;
19525;SDS011;9907;42.676;26.348;2023-04-01T00:37:05;10.30;;;7.10;;
19525;SDS011;9907;42.676;26.348;2023-04-01T00:39:31;10.63;;;7.00;;
19525;SDS011;9907;42.676;26.348;2023-04-01T00:41:58;12.43;;;6.43;;
19525;SDS011;9907;42.676;26.348;2023-04-01T00:44:26;12.00;;;6.60;;
19525;SDS011;9907;42.676;26.348;2023-04-01T00:46:53;8.50;;;6.37;;
19525;SDS011;9907;42.676;26.348;2023-04-01T00:49:20;8.97;;;6.30;;
19525;SDS011;9907;42.676;26.348;2023-04-01T00:51:53;9.03;;;5.80;;
19525;SDS011;9907;42.676;26.348;2023-04-01T00:54:22;8.23;;;6.23;;
19525;SDS011;9907;42.676;26.348;2023-04-01T00:56:59;8.80;;;6.03;;
19525;SDS011;9907;42.676;26.348;2023-04-01T00:59:30;12.43;;;5.77;;
19525;SDS011;9907;42.676;26.348;2023-04-01T01:02:05;7.23;;;5.57;;
19525;SDS011;9907;42.676;26.348;2023-04-01T01:04:34;8.40;;;5.93;;
19525;SDS011;9907;42.676;26.348;2023-04-01T01:15:21;9.13;;;4.87;;
19525;SDS011;9907;42.676;26.348;2023-04-01T01:37:04;7.90;;;4.60;;
19525;SDS011;9907;42.676;26.348;2023-04-01T01:39:34;10.20;;;5.67;;
19525;SDS011;9907;42.676;26.348;2023-04-01T01:42:04;8.17;;;4.83;;
19525;SDS011;9907;42.676;26.348;2023-04-01T01:44:33;6.87;;;4.73;;
19525;SDS011;9907;42.676;26.348;2023-04-01T01:47:00;7.20;;;4.90;;
19525;SDS011;9907;42.676;26.348;2023-04-01T01:49:27;8.47;;;5.27;;
19525;SDS011;9907;42.676;26.348;2023-04-01T01:51:55;7.40;;;4.87;;
19525;SDS011;9907;42.676;26.348;2023-04-01T01:54:22;8.57;;;5.00;;
19525;SDS011;9907;42.676;26.348;2023-04-01T01:56:48;7.00;;;4.40;;
19525;SDS011;9907;42.676;26.348;2023-04-01T01:59:19;8.23;;;5.20;;
19525;SDS011;9907;42.676;26.348;2023-04-01T02:01:49;6.20;;;5.10;;
19525;SDS011;9907;42.676;26.348;2023-04-01T02:04:17;8.03;;;4.80;;
19525;SDS011;9907;42.676;26.348;2023-04-01T02:06:55;6.60;;;4.70;;
19525;SDS011;9907;42.676;26.348;2023-04-01T02:09:27;12.17;;;5.00;;
19525;SDS011;9907;42.676;26.348;2023-04-01T02:12:04;11.60;;;4.80;;
19525;SDS011;9907;42.676;26.348;2023-04-01T02:17:20;5.60;;;4.30;;
19525;SDS011;9907;42.676;26.348;2023-04-01T02:19:52;8.53;;;4.80;;
19525;SDS011;9907;42.676;26.348;2023-04-01T02:22:24;8.00;;;4.50;;
19525;SDS011;9907;42.676;26.348;2023-04-01T02:24:54;6.17;;;3.67;;
19525;SDS011;9907;42.676;26.348;2023-04-01T02:27:23;8.00;;;4.83;;
19525;SDS011;9907;42.676;26.348;2023-04-01T02:29:50;8.10;;;5.40;;
19525;SDS011;9907;42.676;26.348;2023-04-01T02:32:17;7.63;;;5.37;;
19525;SDS011;9907;42.676;26.348;2023-04-01T02:34:44;8.93;;;5.63;;
19525;SDS011;9907;42.676;26.348;2023-04-01T02:37:10;6.73;;;5.53;;
19525;SDS011;9907;42.676;26.348;2023-04-01T02:39:37;9.70;;;5.93;;
19525;SDS011;9907;42.676;26.348;2023-04-01T02:42:02;9.90;;;6.03;;
19525;SDS011;9907;42.676;26.348;2023-04-01T02:44:28;12.33;;;6.70;;
19525;SDS011;9907;42.676;26.348;2023-04-01T02:46:53;10.10;;;6.50;;
19525;SDS011;9907;42.676;26.348;2023-04-01T02:49:19;8.93;;;6.13;;
19525;SDS011;9907;42.676;26.348;2023-04-01T02:51:44;10.17;;;7.20;;
19525;SDS011;9907;42.676;26.348;2023-04-01T02:54:10;11.20;;;7.03;;
19525;SDS011;9907;42.676;26.348;2023-04-01T02:56:35;11.37;;;7.00;;
19525;SDS011;9907;42.676;26.348;2023-04-01T02:59:01;11.17;;;7.20;;
19525;SDS011;9907;42.676;26.348;2023-04-01T03:01:26;16.70;;;10.07;;
19525;SDS011;9907;42.676;26.348;2023-04-01T03:03:52;14.93;;;8.20;;
19525;SDS011;9907;42.676;26.348;2023-04-01T03:06:17;12.20;;;7.10;;
19525;SDS011;9907;42.676;26.348;2023-04-01T03:08:43;10.33;;;6.60;;
19525;SDS011;9907;42.676;26.348;2023-04-01T03:11:09;10.60;;;6.70;;
19525;SDS011;9907;42.676;26.348;2023-04-01T03:13:35;10.17;;;5.93;;
19525;SDS011;9907;42.676;26.348;2023-04-01T03:16:01;7.57;;;5.30;;
19525;SDS011;9907;42.676;26.348;2023-04-01T03:18:27;12.53;;;6.33;;
19525;SDS011;9907;42.676;26.348;2023-04-01T03:20:52;10.10;;;6.03;;
19525;SDS011;9907;42.676;26.348;2023-04-01T03:23:19;8.60;;;6.17;;
19525;SDS011;9907;42.676;26.348;2023-04-01T03:25:46;7.57;;;5.43;;
19525;SDS011;9907;42.676;26.348;2023-04-01T03:28:13;8.73;;;4.93;;
19525;SDS011;9907;42.676;26.348;2023-04-01T03:30:38;6.60;;;4.93;;
19525;SDS011;9907;42.676;26.348;2023-04-01T03:33:04;9.03;;;5.30;;
19525;SDS011;9907;42.676;26.348;2023-04-01T03:35:31;8.83;;;5.00;;
19525;SDS011;9907;42.676;26.348;2023-04-01T03:37:57;7.70;;;4.57;;
19525;SDS011;9907;42.676;26.348;2023-04-01T03:40:22;7.27;;;4.40;;
19525;SDS011;9907;42.676;26.348;2023-04-01T03:42:48;8.40;;;5.60;;
19525;SDS011;9907;42.676;26.348;2023-04-01T03:45:14;8.50;;;5.60;;
19525;SDS011;9907;42.676;26.348;2023-04-01T03:47:40;10.47;;;5.37;;
19525;SDS011;9907;42.676;26.348;2023-04-01T03:50:06;8.80;;;5.07;;
19525;SDS011;9907;42.676;26.348;2023-04-01T03:52:33;6.43;;;5.00;;
19525;SDS011;9907;42.676;26.348;2023-04-01T03:54:59;11.10;;;5.43;;
19525;SDS011;9907;42.676;26.348;2023-04-01T03:57:25;7.77;;;5.33;;
19525;SDS011;9907;42.676;26.348;2023-04-01T03:59:51;9.63;;;5.40;;
19525;SDS011;9907;42.676;26.348;2023-04-01T04:02:16;8.70;;;4.90;;
19525;SDS011;9907;42.676;26.348;2023-04-01T04:04:42;6.70;;;4.83;;
19525;SDS011;9907;42.676;26.348;2023-04-01T04:07:07;7.70;;;5.10;;
19525;SDS011;9907;42.676;26.348;2023-04-01T04:09:33;11.10;;;4.70;;
19525;SDS011;9907;42.676;26.348;2023-04-01T04:11:59;6.53;;;5.10;;
19525;SDS011;9907;42.676;26.348;2023-04-01T04:14:24;7.53;;;4.63;;
19525;SDS011;9907;42.676;26.348;2023-04-01T04:16:50;10.90;;;5.33;;
19525;SDS011;9907;42.676;26.348;2023-04-01T04:19:16;10.00;;;5.67;;
19525;SDS011;9907;42.676;26.348;2023-04-01T04:21:41;7.83;;;5.50;;
19525;SDS011;9907;42.676;26.348;2023-04-01T04:24:07;9.53;;;6.13;;
19525;SDS011;9907;42.676;26.348;2023-04-01T04:26:33;10.00;;;6.00;;
19525;SDS011;9907;42.676;26.348;2023-04-01T04:28:59;11.23;;;6.17;;
19525;SDS011;9907;42.676;26.348;2023-04-01T04:31:25;10.87;;;6.63;;
19525;SDS011;9907;42.676;26.348;2023-04-01T04:33:51;13.03;;;6.40;;
19525;SDS011;9907;42.676;26.348;2023-04-01T04:36:17;8.40;;;6.13;;
19525;SDS011;9907;42.676;26.348;2023-04-01T04:38:44;12.13;;;6.40;;
19525;SDS011;9907;42.676;26.348;2023-04-01T04:41:10;8.90;;;6.57;;
19525;SDS011;9907;42.676;26.348;2023-04-01T04:43:39;10.83;;;6.40;;
19525;SDS011;9907;42.676;26.348;2023-04-01T04:46:09;9.97;;;6.23;;
19525;SDS011;9907;42.676;26.348;2023-04-01T04:48:37;8.50;;;6.03;;
19525;SDS011;9907;42.676;26.348;2023-04-01T04:51:03;9.07;;;5.57;;
19525;SDS011;9907;42.676;26.348;2023-04-01T04:53:28;8.10;;;5.17;;
19525;SDS011;9907;42.676;26.348;2023-04-01T04:55:54;14.37;;;7.80;;
19525;SDS011;9907;42.676;26.348;2023-04-01T04:58:20;10.83;;;5.90;;
19525;SDS011;9907;42.676;26.348;2023-04-01T05:00:45;10.53;;;5.87;;
19525;SDS011;9907;42.676;26.348;2023-04-01T05:03:11;9.07;;;5.67;;
19525;SDS011;9907;42.676;26.348;2023-04-01T05:05:37;9.23;;;5.47;;
19525;SDS011;9907;42.676;26.348;2023-04-01T05:08:03;9.27;;;5.90;;
19525;SDS011;9907;42.676;26.348;2023-04-01T05:10:29;7.33;;;5.50;;
19525;SDS011;9907;42.676;26.348;2023-04-01T05:12:55;11.73;;;6.90;;
19525;SDS011;9907;42.676;26.348;2023-04-01T05:15:21;11.13;;;5.80;;
19525;SDS011;9907;42.676;26.348;2023-04-01T05:17:47;9.17;;;5.80;;
19525;SDS011;9907;42.676;26.348;2023-04-01T05:20:13;7.57;;;4.93;;
19525;SDS011;9907;42.676;26.348;2023-04-01T05:22:39;11.17;;;5.77;;
19525;SDS011;9907;42.676;26.348;2023-04-01T05:25:05;10.13;;;6.13;;
19525;SDS011;9907;42.676;26.348;2023-04-01T05:27:31;15.93;;;6.70;;
19525;SDS011;9907;42.676;26.348;2023-04-01T05:29:57;13.43;;;5.50;;
19525;SDS011;9907;42.676;26.348;2023-04-01T05:32:22;7.77;;;5.33;;
19525;SDS011;9907;42.676;26.348;2023-04-01T05:34:50;11.07;;;5.23;;
19525;SDS011;9907;42.676;26.348;2023-04-01T05:37:16;7.43;;;5.47;;
19525;SDS011;9907;42.676;26.348;2023-04-01T05:39:42;9.40;;;5.63;;
19525;SDS011;9907;42.676;26.348;2023-04-01T05:42:08;9.87;;;5.00;;
19525;SDS011;9907;42.676;26.348;2023-04-01T05:44:33;10.03;;;5.00;;
19525;SDS011;9907;42.676;26.348;2023-04-01T05:47:00;11.10;;;5.10;;
19525;SDS011;9907;42.676;26.348;2023-04-01T05:49:25;7.70;;;4.87;;
19525;SDS011;9907;42.676;26.348;2023-04-01T05:51:52;7.43;;;5.50;;
19525;SDS011;9907;42.676;26.348;2023-04-01T05:54:18;14.13;;;5.50;;
19525;SDS011;9907;42.676;26.348;2023-04-01T05:56:44;6.60;;;4.90;;
19525;SDS011;9907;42.676;26.348;2023-04-01T05:59:10;12.10;;;5.83;;
19525;SDS011;9907;42.676;26.348;2023-04-01T06:01:36;10.33;;;6.40;;
19525;SDS011;9907;42.676;26.348;2023-04-01T06:04:02;6.70;;;4.83;;
19525;SDS011;9907;42.676;26.348;2023-04-01T06:06:28;5.37;;;4.33;;
19525;SDS011;9907;42.676;26.348;2023-04-01T06:08:57;4.83;;;3.70;;
19525;SDS011;9907;42.676;26.348;2023-04-01T06:11:31;6.47;;;3.57;;
19525;SDS011;9907;42.676;26.348;2023-04-01T06:26:03;6.80;;;3.37;;
19525;SDS011;9907;42.676;26.348;2023-04-01T06:31:38;4.77;;;3.37;;
19525;SDS011;9907;42.676;26.348;2023-04-01T06:37:48;4.97;;;3.80;;
19525;SDS011;9907;42.676;26.348;2023-04-01T06:51:32;11.23;;;4.20;;
19525;SDS011;9907;42.676;26.348;2023-04-01T06:54:10;7.83;;;3.77;;
19525;SDS011;9907;42.676;26.348;2023-04-01T06:56:42;8.37;;;4.30;;
19525;SDS011;9907;42.676;26.348;2023-04-01T07:01:52;6.73;;;3.60;;
19525;SDS011;9907;42.676;26.348;2023-04-01T07:04:22;6.67;;;3.60;;
19525;SDS011;9907;42.676;26.348;2023-04-01T07:09:25;8.63;;;3.67;;
19525;SDS011;9907;42.676;26.348;2023-04-01T07:11:56;7.63;;;3.70;;
19525;SDS011;9907;42.676;26.348;2023-04-01T07:14:37;6.37;;;4.13;;
19525;SDS011;9907;42.676;26.348;2023-04-01T07:17:23;8.27;;;3.90;;
19525;SDS011;9907;42.676;26.348;2023-04-01T07:20:39;7.17;;;3.93;;
19525;SDS011;9907;42.676;26.348;2023-04-01T07:22:43;8.50;;;4.17;;
19525;SDS011;9907;42.676;26.348;2023-04-01T07:27:44;8.27;;;4.37;;
19525;SDS011;9907;42.676;26.348;2023-04-01T07:30:15;7.43;;;4.43;;
19525;SDS011;9907;42.676;26.348;2023-04-01T07:36:03;6.63;;;3.73;;
19525;SDS011;9907;42.676;26.348;2023-04-01T07:39:19;6.83;;;4.13;;
19525;SDS011;9907;42.676;26.348;2023-04-01T07:41:49;6.97;;;3.50;;
19525;SDS011;9907;42.676;26.348;2023-04-01T08:01:47;10.80;;;4.70;;
19525;SDS011;9907;42.676;26.348;2023-04-01T08:04:34;9.07;;;4.47;;
19525;SDS011;9907;42.676;26.348;2023-04-01T08:07:23;7.57;;;4.87;;
19525;SDS011;9907;42.676;26.348;2023-04-01T08:12:56;9.13;;;5.07;;
19525;SDS011;9907;42.676;26.348;2023-04-01T08:15:36;8.50;;;5.20;;
19525;SDS011;9907;42.676;26.348;2023-04-01T08:21:25;8.77;;;4.87;;
19525;SDS011;9907;42.676;26.348;2023-04-01T08:23:56;5.70;;;4.37;;
19525;SDS011;9907;42.676;26.348;2023-04-01T08:26:35;7.07;;;4.40;;
19525;SDS011;9907;42.676;26.348;2023-04-01T08:29:11;5.67;;;3.80;;
19525;SDS011;9907;42.676;26.348;2023-04-01T08:34:43;7.33;;;3.63;;
19525;SDS011;9907;42.676;26.348;2023-04-01T08:39:44;7.17;;;3.50;;
19525;SDS011;9907;42.676;26.348;2023-04-01T09:04:06;4.53;;;2.50;;
19525;SDS011;9907;42.676;26.348;2023-04-01T09:07:04;6.53;;;2.97;;
19525;SDS011;9907;42.676;26.348;2023-04-01T09:20:25;6.47;;;3.30;;
19525;SDS011;9907;42.676;26.348;2023-04-01T09:23:15;6.80;;;3.60;;
19525;SDS011;9907;42.676;26.348;2023-04-01T09:31:44;7.07;;;3.40;;
19525;SDS011;9907;42.676;26.348;2023-04-01T09:40:17;14.90;;;3.67;;
19525;SDS011;9907;42.676;26.348;2023-04-01T09:45:44;5.17;;;3.37;;
19525;SDS011;9907;42.676;26.348;2023-04-01T10:21:40;6.17;;;3.80;;
19525;SDS011;9907;42.676;26.348;2023-04-01T10:27:20;8.33;;;3.67;;
19525;SDS011;9907;42.676;26.348;2023-04-01T10:40:34;15.13;;;4.60;;
19525;SDS011;9907;42.676;26.348;2023-04-01T10:54:13;5.73;;;3.77;;
19525;SDS011;9907;42.676;26.348;2023-04-01T10:56:50;8.57;;;4.40;;
19525;SDS011;9907;42.676;26.348;2023-04-01T11:00:08;9.57;;;4.47;;
19525;SDS011;9907;42.676;26.348;2023-04-01T11:13:42;9.70;;;5.13;;
19525;SDS011;9907;42.676;26.348;2023-04-01T11:27:30;9.10;;;4.73;;
19525;SDS011;9907;42.676;26.348;2023-04-01T11:33:02;9.47;;;4.30;;
19525;SDS011;9907;42.676;26.348;2023-04-01T11:35:56;19.50;;;5.87;;
19525;SDS011;9907;42.676;26.348;2023-04-01T11:38:57;9.47;;;3.87;;
19525;SDS011;9907;42.676;26.348;2023-04-01T11:44:37;6.03;;;3.50;;
19525;SDS011;9907;42.676;26.348;2023-04-01T12:00:31;12.00;;;5.50;;
19525;SDS011;9907;42.676;26.348;2023-04-01T12:03:26;11.40;;;4.73;;
19525;SDS011;9907;42.676;26.348;2023-04-01T12:11:35;6.97;;;4.53;;
19525;SDS011;9907;42.676;26.348;2023-04-01T12:45:29;12.60;;;5.23;;
19525;SDS011;9907;42.676;26.348;2023-04-01T12:56:03;12.67;;;3.77;;
19525;SDS011;9907;42.676;26.348;2023-04-01T12:59:22;6.30;;;3.30;;
19525;SDS011;9907;42.676;26.348;2023-04-01T13:07:17;8.63;;;3.67;;
19525;SDS011;9907;42.676;26.348;2023-04-01T13:23:14;13.87;;;4.33;;
19525;SDS011;9907;42.676;26.348;2023-04-01T13:28:32;15.83;;;4.40;;
19525;SDS011;9907;42.676;26.348;2023-04-01T13:33:52;9.10;;;3.47;;
19525;SDS011;9907;42.676;26.348;2023-04-01T13:42:31;14.80;;;4.50;;
19525;SDS011;9907;42.676;26.348;2023-04-01T13:55:59;13.13;;;4.73;;
19525;SDS011;9907;42.676;26.348;2023-04-01T14:06:28;10.00;;;3.93;;
19525;SDS011;9907;42.676;26.348;2023-04-01T14:17:29;11.90;;;3.90;;
19525;SDS011;9907;42.676;26.348;2023-04-01T14:30:53;17.87;;;4.70;;
19525;SDS011;9907;42.676;26.348;2023-04-01T14:47:59;14.70;;;4.27;;
19525;SDS011;9907;42.676;26.348;2023-04-01T14:50:49;13.53;;;4.50;;
19525;SDS011;9907;42.676;26.348;2023-04-01T14:58:18;13.60;;;4.50;;
19525;SDS011;9907;42.676;26.348;2023-04-01T15:03:53;13.67;;;3.70;;
19525;SDS011;9907;42.676;26.348;2023-04-01T15:17:43;63.77;;;17.03;;
19525;SDS011;9907;42.676;26.348;2023-04-01T15:22:57;15.30;;;4.80;;
19525;SDS011;9907;42.676;26.348;2023-04-01T15:47:06;13.07;;;4.80;;
19525;SDS011;9907;42.676;26.348;2023-04-01T16:47:58;4.47;;;4.03;;
19525;SDS011;9907;42.676;26.348;2023-04-01T16:53:45;6.07;;;3.83;;
19525;SDS011;9907;42.676;26.348;2023-04-01T17:01:55;2.30;;;1.80;;
19525;SDS011;9907;42.676;26.348;2023-04-01T17:12:35;9.43;;;5.50;;
19525;SDS011;9907;42.676;26.348;2023-04-01T17:23:23;1.73;;;1.63;;
19525;SDS011;9907;42.676;26.348;2023-04-01T17:36:58;2.53;;;2.13;;
19525;SDS011;9907;42.676;26.348;2023-04-01T17:42:15;2.07;;;1.87;;
19525;SDS011;9907;42.676;26.348;2023-04-01T17:45:04;10.87;;;6.43;;
19525;SDS011;9907;42.676;26.348;2023-04-01T17:48:17;2.87;;;2.30;;
19525;SDS011;9907;42.676;26.348;2023-04-01T17:50:44;2.67;;;2.40;;
19525;SDS011;9907;42.676;26.348;2023-04-01T17:56:58;4.13;;;3.40;;
19525;SDS011;9907;42.676;26.348;2023-04-01T18:04:53;2.27;;;2.07;;
19525;SDS011;9907;42.676;26.348;2023-04-01T18:12:36;1.40;;;1.30;;
19525;SDS011;9907;42.676;26.348;2023-04-01T18:26:44;4.23;;;3.83;;
19525;SDS011;9907;42.676;26.348;2023-04-01T18:31:47;2.07;;;1.87;;
19525;SDS011;9907;42.676;26.348;2023-04-01T18:39:52;1.10;;;1.10;;
19525;SDS011;9907;42.676;26.348;2023-04-01T18:47:56;2.13;;;1.40;;
19525;SDS011;9907;42.676;26.348;2023-04-01T18:53:31;2.63;;;2.33;;
19525;SDS011;9907;42.676;26.348;2023-04-01T18:56:06;2.10;;;1.90;;
19525;SDS011;9907;42.676;26.348;2023-04-01T18:58:48;1.97;;;1.77;;
19525;SDS011;9907;42.676;26.348;2023-04-01T19:04:05;1.63;;;1.53;;
19525;SDS011;9907;42.676;26.348;2023-04-01T19:06:35;2.87;;;2.47;;
19525;SDS011;9907;42.676;26.348;2023-04-01T19:09:31;4.20;;;2.90;;
19525;SDS011;9907;42.676;26.348;2023-04-01T19:25:55;4.77;;;3.50;;
19525;SDS011;9907;42.676;26.348;2023-04-01T19:39:27;4.60;;;3.57;;
19525;SDS011;9907;42.676;26.348;2023-04-01T19:52:41;3.67;;;2.80;;
19525;SDS011;9907;42.676;26.348;2023-04-01T19:55:20;2.10;;;1.90;;
19525;SDS011;9907;42.676;26.348;2023-04-01T20:00:32;2.27;;;1.60;;
19525;SDS011;9907;42.676;26.348;2023-04-01T20:16:50;1.40;;;1.30;;
19525;SDS011;9907;42.676;26.348;2023-04-01T20:19:28;1.70;;;1.60;;
19525;SDS011;9907;42.676;26.348;2023-04-01T20:21:56;1.60;;;1.30;;
19525;SDS011;9907;42.676;26.348;2023-04-01T20:24:28;1.33;;;1.20;;
19525;SDS011;9907;42.676;26.348;2023-04-01T20:27:18;1.80;;;1.70;;
19525;SDS011;9907;42.676;26.348;2023-04-01T20:32:52;1.70;;;1.47;;
19525;SDS011;9907;42.676;26.348;2023-04-01T20:35:25;1.33;;;1.23;;
19525;SDS011;9907;42.676;26.348;2023-04-01T20:38:19;1.90;;;1.80;;
19525;SDS011;9907;42.676;26.348;2023-04-01T20:41:54;1.50;;;1.40;;
19525;SDS011;9907;42.676;26.348;2023-04-01T20:44:13;1.57;;;1.47;;
19525;SDS011;9907;42.676;26.348;2023-04-01T20:46:47;3.13;;;2.47;;
19525;SDS011;9907;42.676;26.348;2023-04-01T20:49:29;2.57;;;2.37;;
19525;SDS011;9907;42.676;26.348;2023-04-01T20:57:29;1.43;;;1.30;;
19525;SDS011;9907;42.676;26.348;2023-04-01T21:16:58;1.30;;;1.20;;
19525;SDS011;9907;42.676;26.348;2023-04-01T21:22:17;1.80;;;1.70;;
19525;SDS011;9907;42.676;26.348;2023-04-01T21:47:00;1.00;;;1.00;;
19525;SDS011;9907;42.676;26.348;2023-04-01T22:06:45;0.80;;;0.80;;
19525;SDS011;9907;42.676;26.348;2023-04-01T22:09:27;0.87;;;0.87;;
19525;SDS011;9907;42.676;26.348;2023-04-01T22:21:16;1.67;;;1.00;;
19525;SDS011;9907;42.676;26.348;2023-04-01T22:31:48;1.07;;;0.90;;
19525;SDS011;9907;42.676;26.348;2023-04-01T22:50:37;1.00;;;1.00;;
19525;SDS011;9907;42.676;26.348;2023-04-01T22:55:57;1.20;;;1.10;;
19525;SDS011;9907;42.676;26.348;2023-04-01T22:58:32;0.70;;;0.70;;
19525;SDS011;9907;42.676;26.348;2023-04-01T23:01:07;1.20;;;1.10;;
19525;SDS011;9907;42.676;26.348;2023-04-01T23:03:41;1.23;;;0.90;;
19525;SDS011;9907;42.676;26.348;2023-04-01T23:06:22;1.10;;;1.00;;
19525;SDS011;9907;42.676;26.348;2023-04-01T23:14:47;0.90;;;0.80;;
19525;SDS011;9907;42.676;26.348;2023-04-01T23:28:44;1.83;;;0.80;;
19525;SDS011;9907;42.676;26.348;2023-04-01T23:31:30;0.93;;;0.93;;
19525;SDS011;9907;42.676;26.348;2023-04-01T23:34:00;0.97;;;0.97;;
19525;SDS011;9907;42.676;26.348;2023-04-01T23:36:29;1.10;;;1.00;;
19525;SDS011;9907;42.676;26.348;2023-04-01T23:38:56;1.00;;;1.00;;
19525;SDS011;9907;42.676;26.348;2023-04-01T23:41:26;1.00;;;1.00;;
19525;SDS011;9907;42.676;26.348;2023-04-01T23:46:28;0.73;;;0.73;;
19525;SDS011;9907;42.676;26.348;2023-04-01T23:48:55;0.70;;;0.70;;
19525;SDS011;9907;42.676;26.348;2023-04-01T23:51:37;1.00;;;1.00;;
19525;SDS011;9907;42.676;26.348;2023-04-01T23:54:13;0.90;;;0.90;;
19525;SDS011;9907;42.676;26.348;2023-04-01T23:56:51;1.00;;;0.90;;
19525;SDS011;9907;42.676;26.348;2023-04-01T23:59:22;1.10;;;1.00;;
